createdAt,value
2022-08-17T00:00:43.678Z,22.44
2022-08-17T00:05:50.348Z,22.34
2022-08-17T00:10:53.480Z,22.25
2022-08-17T00:15:59.784Z,22.22
2022-08-17T00:21:04.698Z,22.19
2022-08-17T00:26:12.704Z,22.23
2022-08-17T00:31:16.031Z,22.16
2022-08-17T00:36:18.298Z,22.13
2022-08-17T00:41:23.867Z,22.11
2022-08-17T00:46:32.240Z,21.98
2022-08-17T00:51:56.036Z,21.90
2022-08-17T00:57:02.546Z,21.81
2022-08-17T01:02:06.273Z,21.84
2022-08-17T01:07:08.502Z,21.75
2022-08-17T01:12:12.138Z,21.53
2022-08-17T01:17:14.113Z,21.37
2022-08-17T01:22:19.045Z,21.33
2022-08-17T01:27:21.444Z,21.30
2022-08-17T01:32:23.558Z,21.30
2022-08-17T01:37:37.757Z,21.26
2022-08-17T01:43:00.180Z,21.22
2022-08-17T01:48:02.041Z,21.19
2022-08-17T01:53:27.532Z,21.09
2022-08-17T01:58:29.479Z,21.07
2022-08-17T02:03:32.098Z,21.04
2022-08-17T02:08:39.268Z,20.98
2022-08-17T02:14:02.396Z,20.94
2022-08-17T02:19:13.376Z,20.89
2022-08-17T02:24:58.812Z,20.86
2022-08-17T02:29:42.096Z,20.86
2022-08-17T02:34:43.965Z,20.77
2022-08-17T02:39:46.125Z,20.74
2022-08-17T02:44:48.105Z,20.71
2022-08-17T02:49:54.358Z,20.69
2022-08-17T02:54:57.793Z,20.60
2022-08-17T02:59:59.456Z,20.54
2022-08-17T03:05:01.143Z,20.45
2022-08-17T03:10:04.142Z,20.44
2022-08-17T03:15:09.484Z,20.38
2022-08-17T03:20:13.147Z,20.31
2022-08-17T03:25:22.720Z,20.27
2022-08-17T03:30:25.949Z,20.27
2022-08-17T03:35:31.434Z,20.23
2022-08-17T03:40:55.920Z,20.20
2022-08-17T03:46:34.698Z,20.17
2022-08-17T03:51:53.869Z,20.17
2022-08-17T03:57:05.940Z,20.13
2022-08-17T04:02:21.568Z,20.25
2022-08-17T04:07:28.482Z,20.41
2022-08-17T04:12:43.877Z,20.55
2022-08-17T04:17:46.003Z,20.85
2022-08-17T04:23:02.753Z,21.05
2022-08-17T04:28:07.602Z,21.00
2022-08-17T04:33:21.892Z,20.94
2022-08-17T04:38:26.222Z,20.90
2022-08-17T04:43:29.235Z,20.90
2022-08-17T04:48:37.061Z,21.21
2022-08-17T04:53:44.985Z,21.90
2022-08-17T04:58:50.153Z,22.43
2022-08-17T05:03:54.574Z,22.87
2022-08-17T05:08:57.746Z,23.22
2022-08-17T05:13:59.586Z,23.51
2022-08-17T05:19:02.625Z,23.79
2022-08-17T05:24:12.855Z,24.05
2022-08-17T05:29:35.093Z,24.29
2022-08-17T05:34:37.789Z,24.48
2022-08-17T05:39:40.022Z,24.69
2022-08-17T05:44:41.805Z,24.81
2022-08-17T05:49:43.840Z,24.85
2022-08-17T05:55:05.137Z,25.01
2022-08-17T06:00:07.927Z,25.11
2022-08-17T06:05:32.964Z,25.20
2022-08-17T06:10:43.568Z,25.23
2022-08-17T06:16:01.870Z,24.97
2022-08-17T06:21:07.205Z,25.02
2022-08-17T06:26:27.602Z,25.25
2022-08-17T06:31:40.781Z,25.13
2022-08-17T06:36:45.529Z,25.26
2022-08-17T06:42:06.780Z,25.40
2022-08-17T06:47:28.839Z,25.64
2022-08-17T06:52:47.137Z,25.55
2022-08-17T06:57:53.712Z,25.77
2022-08-17T07:03:06.689Z,25.73
2022-08-17T07:08:20.082Z,26.13
2022-08-17T07:13:21.760Z,26.26
2022-08-17T07:18:26.614Z,26.56
2022-08-17T07:23:47.406Z,26.77
2022-08-17T07:28:49.917Z,26.72
2022-08-17T07:34:14.423Z,26.87
2022-08-17T07:39:26.959Z,26.97
2022-08-17T07:44:28.914Z,27.23
2022-08-17T07:49:31.129Z,27.20
2022-08-17T07:54:37.114Z,27.40
2022-08-17T07:59:43.340Z,27.56
2022-08-17T08:05:06.755Z,27.68
2022-08-17T08:10:38.885Z,27.80
2022-08-17T08:15:54.754Z,27.92
2022-08-17T08:21:07.245Z,28.10
2022-08-17T08:26:37.228Z,28.19
2022-08-17T08:32:18.261Z,28.33
2022-08-17T08:37:34.741Z,28.48
2022-08-17T08:42:48.861Z,28.70
2022-08-17T08:47:53.805Z,28.86
2022-08-17T08:53:07.861Z,28.89
2022-08-17T08:58:32.165Z,29.09
2022-08-17T09:04:20.002Z,29.34
2022-08-17T09:09:49.612Z,29.56
2022-08-17T09:15:03.182Z,29.67
2022-08-17T09:20:27.557Z,29.80
2022-08-17T09:25:34.277Z,30.05
2022-08-17T09:30:49.885Z,30.12
2022-08-17T09:35:59.513Z,30.28
2022-08-17T09:41:13.080Z,30.40
2022-08-17T09:46:18.266Z,30.63
2022-08-17T09:51:55.239Z,30.77
2022-08-17T09:57:29.757Z,31.01
2022-08-17T10:02:44.514Z,31.14
2022-08-17T10:08:02.464Z,31.33
2022-08-17T10:13:28.289Z,31.41
2022-08-17T10:18:37.667Z,31.54
2022-08-17T10:23:58.650Z,31.80
2022-08-17T10:29:09.493Z,31.69
2022-08-17T10:34:19.853Z,31.78
2022-08-17T10:39:35.241Z,31.94
2022-08-17T10:45:20.032Z,32.09
2022-08-17T10:50:47.654Z,32.20
2022-08-17T10:56:14.605Z,32.22
2022-08-17T11:01:17.557Z,32.29
2022-08-17T11:06:42.525Z,32.42
2022-08-17T11:12:00.905Z,32.60
2022-08-17T11:17:14.647Z,32.36
2022-08-17T11:22:34.238Z,32.52
2022-08-17T11:27:36.592Z,32.48
2022-08-17T11:32:54.560Z,32.79
2022-08-17T11:38:16.346Z,32.84
2022-08-17T11:43:55.150Z,32.89
2022-08-17T11:49:29.024Z,33.14
2022-08-17T11:54:33.660Z,33.29
2022-08-17T11:59:45.948Z,33.21
2022-08-17T12:05:21.143Z,33.14
2022-08-17T12:10:31.966Z,33.20
2022-08-17T12:15:42.545Z,33.01
2022-08-17T12:20:56.103Z,33.15
2022-08-17T12:26:11.946Z,33.39
2022-08-17T12:31:24.458Z,33.27
2022-08-17T12:36:28.404Z,33.52
2022-08-17T12:41:42.546Z,33.59
2022-08-17T12:46:46.899Z,33.70
2022-08-17T12:51:50.214Z,33.83
2022-08-17T12:56:51.982Z,33.50
2022-08-17T13:01:53.888Z,33.92
2022-08-17T13:06:59.852Z,33.75
2022-08-17T13:12:02.156Z,34.20
2022-08-17T13:17:08.578Z,34.61
2022-08-17T13:22:12.940Z,34.81
2022-08-17T13:27:15.351Z,34.69
2022-08-17T13:32:23.042Z,34.33
2022-08-17T13:37:29.626Z,34.16
2022-08-17T13:42:52.282Z,34.14
2022-08-17T13:48:11.892Z,34.04
2022-08-17T13:53:40.391Z,34.31
2022-08-17T13:58:55.255Z,34.25
2022-08-17T14:03:58.714Z,34.33
2022-08-17T14:09:04.801Z,34.22
2022-08-17T14:14:06.684Z,34.32
2022-08-17T14:19:11.668Z,34.43
2022-08-17T14:24:41.309Z,34.48
2022-08-17T14:29:47.681Z,34.29
2022-08-17T14:34:50.390Z,34.28
2022-08-17T14:39:57.338Z,34.23
2022-08-17T14:45:00.203Z,34.10
2022-08-17T14:50:04.308Z,34.19
2022-08-17T14:55:13.102Z,34.21
2022-08-17T15:00:16.871Z,34.13
2022-08-17T15:05:19.295Z,34.16
2022-08-17T15:10:21.408Z,34.09
2022-08-17T15:15:23.803Z,33.99
2022-08-17T15:20:29.584Z,33.96
2022-08-17T15:25:32.983Z,34.07
2022-08-17T15:30:35.821Z,34.09
2022-08-17T15:35:37.464Z,33.98
2022-08-17T15:40:50.653Z,33.81
2022-08-17T15:46:12.391Z,33.80
2022-08-17T15:51:17.626Z,33.66
2022-08-17T15:56:19.948Z,33.54
2022-08-17T16:03:13.586Z,33.45
2022-08-17T16:06:45.783Z,33.46
2022-08-17T16:11:53.718Z,33.27
2022-08-17T16:16:59.135Z,33.11
2022-08-17T16:22:01.030Z,33.11
2022-08-17T16:27:04.137Z,33.11
2022-08-17T16:32:21.822Z,33.11
2022-08-17T16:37:34.229Z,33.06
2022-08-17T16:42:37.990Z,32.98
2022-08-17T16:47:40.333Z,33.00
2022-08-17T16:52:42.360Z,32.91
2022-08-17T16:57:47.604Z,32.77
2022-08-17T17:02:54.566Z,32.62
2022-08-17T17:08:03.352Z,32.49
2022-08-17T17:13:17.111Z,32.35
2022-08-17T17:18:23.018Z,32.23
2022-08-17T17:23:27.705Z,32.06
2022-08-17T17:28:29.281Z,31.89
2022-08-17T17:34:00.386Z,31.67
2022-08-17T17:39:23.218Z,31.45
2022-08-17T17:44:32.928Z,31.21
2022-08-17T17:49:38.436Z,31.02
2022-08-17T17:54:52.293Z,30.83
2022-08-17T18:00:08.807Z,30.69
2022-08-17T18:05:26.988Z,30.51
2022-08-17T18:10:45.085Z,30.34
2022-08-17T18:15:54.190Z,30.19
2022-08-17T18:21:05.136Z,30.01
2022-08-17T18:26:06.905Z,29.79
2022-08-17T18:31:19.150Z,29.64
2022-08-17T18:36:37.411Z,29.49
2022-08-17T18:41:45.245Z,29.34
2022-08-17T18:46:46.926Z,29.20
2022-08-17T18:51:48.559Z,29.05
2022-08-17T18:56:50.189Z,28.75
2022-08-17T19:02:27.363Z,28.57
2022-08-17T19:07:39.064Z,28.32
2022-08-17T19:12:46.168Z,28.23
2022-08-17T19:17:55.151Z,28.13
2022-08-17T19:23:10.100Z,28.07
2022-08-17T19:28:34.790Z,27.81
2022-08-17T19:33:37.545Z,27.50
2022-08-17T19:39:00.842Z,27.53
2022-08-17T19:44:34.715Z,27.51
2022-08-17T19:50:14.860Z,27.32
2022-08-17T19:55:32.033Z,27.16
2022-08-17T20:00:42.024Z,27.03
2022-08-17T20:11:24.981Z,26.85
2022-08-17T20:16:27.065Z,26.54
2022-08-17T20:21:38.293Z,26.42
2022-08-17T20:26:59.838Z,26.32
2022-08-17T20:32:01.964Z,26.34
2022-08-17T20:37:11.012Z,26.30
2022-08-17T20:42:15.523Z,26.22
2022-08-17T20:47:26.932Z,26.14
2022-08-17T20:52:50.872Z,26.05
2022-08-17T20:57:52.753Z,25.97
2022-08-17T21:03:26.715Z,25.79
2022-08-17T21:08:53.147Z,25.68
2022-08-17T21:14:23.296Z,25.59
2022-08-17T21:20:07.635Z,25.53
2022-08-17T21:25:20.693Z,25.43
2022-08-17T21:30:46.701Z,25.37
2022-08-17T21:35:50.772Z,25.28
2022-08-17T21:40:53.459Z,25.17
2022-08-17T21:46:03.735Z,24.98
2022-08-17T21:51:13.918Z,24.86
2022-08-17T21:56:30.292Z,24.82
2022-08-17T22:01:39.041Z,24.76
2022-08-17T22:06:57.286Z,24.63
2022-08-17T22:12:12.335Z,24.54
2022-08-17T22:17:26.113Z,24.47
2022-08-17T22:23:18.099Z,24.43
2022-08-17T22:28:56.489Z,24.36
2022-08-17T22:33:59.766Z,24.36
2022-08-17T22:39:10.580Z,24.20
2022-08-17T22:44:29.619Z,23.96
2022-08-17T22:50:02.221Z,23.89
2022-08-17T22:55:35.361Z,23.29
2022-08-17T23:00:37.447Z,23.52
2022-08-17T23:05:43.485Z,23.50
2022-08-17T23:10:46.562Z,23.57
2022-08-17T23:15:51.008Z,23.48
2022-08-17T23:20:53.529Z,23.32
2022-08-17T23:25:55.392Z,23.25
2022-08-17T23:30:57.035Z,23.22
2022-08-17T23:35:58.852Z,23.14
2022-08-17T23:41:05.882Z,23.11
2022-08-17T23:46:07.522Z,23.02
2022-08-17T23:51:17.444Z,22.95
2022-08-17T23:56:25.966Z,22.92
